Time;durP1;ratioP1;P1;durP2;ratioP2;P2;SDS_P1;SDS_P2;PMS_P1;PMS_P2;Temp;Humidity;BMP_temperature;BMP_pressure;BME280_temperature;BME280_humidity;BME280_pressure;Samples;Min_cycle;Max_cycle;Signal;HPM_P1;HPM_P2
2021/01/21 00:00:57;;;;;;;23.63;14.18;;;-1.60;99.90;;;;;;4720973;30;20100;-77
2021/01/21 00:03:30;;;;;;;19.63;12.02;;;-1.60;99.90;;;;;;4735581;30;20147;-77
2021/01/21 00:06:02;;;;;;;17.35;10.90;;;-1.60;99.90;;;;;;4721026;30;20084;-78
2021/01/21 00:08:29;;;;;;;17.38;10.88;;;-1.60;99.90;;;;;;4735483;30;20898;-76
2021/01/21 00:10:56;;;;;;;15.88;9.63;;;-1.60;99.90;;;;;;4721174;30;20116;-77
2021/01/21 00:13:27;;;;;;;17.02;10.23;;;-1.60;99.90;;;;;;4734993;30;20064;-76
2021/01/21 00:15:59;;;;;;;15.73;10.05;;;-1.60;99.90;;;;;;4720602;30;20052;-76
2021/01/21 00:18:31;;;;;;;20.63;11.93;;;-1.60;99.90;;;;;;4735354;30;20139;-76
2021/01/21 00:21:03;;;;;;;17.50;10.80;;;-1.60;99.90;;;;;;4720670;30;20057;-76
2021/01/21 00:23:34;;;;;;;16.33;10.57;;;-1.60;99.90;;;;;;4735346;30;20059;-78
2021/01/21 00:26:01;;;;;;;17.88;11.23;;;-1.70;99.90;;;;;;4734878;30;20135;-77
2021/01/21 00:28:33;;;;;;;28.80;17.42;;;-1.70;99.90;;;;;;4734802;30;20056;-77
2021/01/21 00:31:00;;;;;;;24.80;15.43;;;-1.80;99.90;;;;;;4720837;30;20091;-78
2021/01/21 00:33:26;;;;;;;25.80;15.70;;;-1.80;99.90;;;;;;4746137;30;20075;-77
2021/01/21 00:35:58;;;;;;;23.27;13.32;;;-1.80;99.90;;;;;;4752229;30;20044;-76
2021/01/21 00:38:25;;;;;;;27.02;14.85;;;-1.90;99.90;;;;;;4754648;30;20048;-76
2021/01/21 00:40:51;;;;;;;22.75;13.50;;;-1.90;99.90;;;;;;4741404;30;20082;-77
2021/01/21 00:43:23;;;;;;;22.50;13.68;;;-1.90;99.90;;;;;;4746301;30;20053;-78
2021/01/21 00:45:56;;;;;;;20.95;12.15;;;-1.90;99.90;;;;;;4837477;24;20063;-79
2021/01/21 00:48:28;;;;;;;22.77;12.50;;;-2.00;99.90;;;;;;4737382;30;20053;-79
2021/01/21 00:50:59;;;;;;;13.98;8.68;;;-2.00;99.90;;;;;;4721543;30;20052;-79
2021/01/21 00:53:26;;;;;;;12.85;9.35;;;-2.00;99.90;;;;;;4738430;30;20076;-79
2021/01/21 00:55:58;;;;;;;14.77;9.30;;;-2.10;99.90;;;;;;4732557;30;20051;-79
2021/01/21 00:58:31;;;;;;;18.42;8.45;;;-2.10;99.90;;;;;;4742895;30;20055;-79
2021/01/21 01:01:03;;;;;;;14.48;8.95;;;-2.10;99.90;;;;;;4742645;30;20044;-79
2021/01/21 01:03:34;;;;;;;15.07;9.10;;;-2.00;99.90;;;;;;4743284;30;20044;-79
2021/01/21 01:06:07;;;;;;;13.93;8.80;;;-2.00;99.90;;;;;;4742785;30;20056;-78
2021/01/21 01:08:34;;;;;;;12.95;8.00;;;-2.00;99.90;;;;;;4742694;30;20060;-78
2021/01/21 01:11:09;;;;;;;12.85;8.20;;;-1.90;99.90;;;;;;4728542;30;20067;-78
2021/01/21 01:13:36;;;;;;;15.48;9.32;;;-1.90;99.90;;;;;;4742262;30;20143;-79
2021/01/21 01:16:09;;;;;;;18.75;9.80;;;-1.90;99.90;;;;;;5127549;24;20074;-79
2021/01/21 01:18:49;;;;;;;14.88;8.20;;;-1.90;99.90;;;;;;4769683;30;20060;-78
2021/01/21 01:21:16;;;;;;;12.65;8.95;;;-1.80;99.90;;;;;;4760219;30;20052;-78
2021/01/21 01:23:48;;;;;;;15.05;8.52;;;-1.80;99.90;;;;;;4760518;30;20048;-79
2021/01/21 01:26:22;;;;;;;15.95;8.35;;;-1.80;99.90;;;;;;5205887;24;20048;-79
2021/01/21 01:29:09;;;;;;;11.00;6.90;;;-1.70;99.90;;;;;;4747393;30;20054;-78
2021/01/21 01:31:43;;;;;;;10.07;5.93;;;-1.70;99.90;;;;;;4760728;30;20131;-79
2021/01/21 01:34:16;;;;;;;11.13;7.20;;;-1.70;99.90;;;;;;4760732;30;20047;-79
2021/01/21 01:37:10;;;;;;;8.93;6.00;;;-1.70;99.90;;;;;;4762937;30;20301;-78
2021/01/21 01:39:46;;;;;;;9.45;6.57;;;-1.70;99.90;;;;;;4759522;30;20048;-78
2021/01/21 01:42:36;;;;;;;12.77;7.68;;;-1.70;99.90;;;;;;4747210;30;20075;-78
2021/01/21 01:45:11;;;;;;;11.63;6.70;;;-1.70;99.90;;;;;;4745464;30;20417;-78
2021/01/21 01:47:46;;;;;;;12.18;7.03;;;-1.60;99.90;;;;;;4745542;30;20066;-78
2021/01/21 01:50:39;;;;;;;14.57;5.78;;;-1.50;99.90;;;;;;4762264;30;20074;-78
2021/01/21 01:53:09;;;;;;;8.25;5.53;;;-1.40;99.90;;;;;;4759381;30;20144;-79
2021/01/21 01:58:31;;;;;;;13.00;6.55;;;-1.40;99.90;;;;;;4871609;24;19925;-80
2021/01/21 02:01:11;;;;;;;13.90;9.30;;;-1.40;99.90;;;;;;4758196;30;20524;-79
2021/01/21 02:03:38;;;;;;;15.07;8.60;;;-1.40;99.90;;;;;;4743416;30;20056;-79
2021/01/21 02:06:30;;;;;;;18.38;9.85;;;-1.50;99.90;;;;;;4728466;30;20052;-79
2021/01/21 02:09:03;;;;;;;13.75;9.05;;;-1.60;99.90;;;;;;4740412;30;20059;-79
2021/01/21 02:12:04;;;;;;;13.73;9.10;;;-1.70;99.90;;;;;;4726906;30;20052;-78
2021/01/21 02:17:42;;;;;;;16.63;9.55;;;-1.70;99.90;;;;;;4925487;24;20437;-79
2021/01/21 02:20:47;;;;;;;15.98;10.07;;;-1.70;99.90;;;;;;4758314;30;20056;-79
2021/01/21 02:23:34;;;;;;;17.08;10.35;;;-1.80;99.90;;;;;;4757750;30;20059;-78
2021/01/21 02:26:13;;;;;;;14.85;9.73;;;-1.80;99.90;;;;;;4743016;30;20082;-79
2021/01/21 02:29:03;;;;;;;12.98;8.95;;;-1.80;99.90;;;;;;4757610;30;20456;-78
2021/01/21 02:31:43;;;;;;;19.67;9.98;;;-1.80;99.90;;;;;;4742939;30;20052;-79
2021/01/21 02:34:16;;;;;;;16.35;10.75;;;-1.80;99.90;;;;;;4771807;30;20055;-78
2021/01/21 02:36:54;;;;;;;15.40;10.30;;;-1.80;99.90;;;;;;4758049;30;20048;-79
2021/01/21 02:39:51;;;;;;;16.70;10.18;;;-1.80;99.90;;;;;;4767466;30;20048;-79
2021/01/21 02:42:24;;;;;;;15.20;9.52;;;-1.70;99.90;;;;;;4757934;30;20052;-79
2021/01/21 02:44:51;;;;;;;16.98;9.40;;;-1.70;99.90;;;;;;4756830;30;20064;-78
2021/01/21 02:47:21;;;;;;;14.20;8.98;;;-1.70;99.90;;;;;;4756604;30;20048;-78
2021/01/21 02:49:53;;;;;;;16.85;10.13;;;-1.70;99.90;;;;;;4757031;30;20051;-78
2021/01/21 02:52:50;;;;;;;15.50;10.55;;;-1.60;99.90;;;;;;4742570;30;20055;-78
2021/01/21 02:55:46;;;;;;;13.52;9.00;;;-1.60;99.90;;;;;;4742793;30;20093;-79
2021/01/21 02:58:27;;;;;;;19.40;10.65;;;-1.50;99.90;;;;;;4756381;30;20603;-79
2021/01/21 03:01:02;;;;;;;18.52;10.15;;;-1.50;99.90;;;;;;4742387;30;20538;-79
2021/01/21 03:03:36;;;;;;;22.15;11.15;;;-1.50;99.90;;;;;;4741853;30;20086;-78
2021/01/21 03:06:09;;;;;;;34.17;16.70;;;-1.50;99.90;;;;;;4755653;30;20105;-78
2021/01/21 03:08:43;;;;;;;20.02;11.95;;;-1.50;99.90;;;;;;4742735;30;20063;-78
2021/01/21 03:11:12;;;;;;;18.85;11.30;;;-1.40;99.90;;;;;;4741296;30;20052;-79
2021/01/21 03:13:50;;;;;;;20.85;12.70;;;-1.50;99.90;;;;;;4756049;30;20419;-79
2021/01/21 03:16:19;;;;;;;20.77;11.52;;;-1.40;99.90;;;;;;4740962;30;20048;-78
2021/01/21 03:18:55;;;;;;;19.30;11.13;;;-1.40;99.90;;;;;;4755797;30;20058;-79
2021/01/21 03:21:22;;;;;;;15.25;9.60;;;-1.40;99.90;;;;;;4741371;30;20051;-78
2021/01/21 03:23:58;;;;;;;36.95;18.70;;;-1.40;99.90;;;;;;4770607;30;20075;-78
2021/01/21 03:26:35;;;;;;;25.40;14.55;;;-1.40;99.90;;;;;;4742585;30;20139;-79
2021/01/21 03:29:13;;;;;;;15.52;10.02;;;-1.40;99.90;;;;;;4742074;30;20054;-80
2021/01/21 03:31:39;;;;;;;17.50;11.13;;;-1.40;99.90;;;;;;4740952;30;20063;-78
2021/01/21 03:34:12;;;;;;;18.83;12.63;;;-1.40;99.90;;;;;;4755687;30;20055;-78
2021/01/21 03:36:52;;;;;;;17.27;11.88;;;-1.40;99.90;;;;;;4757346;30;20296;-78
2021/01/21 03:39:25;;;;;;;19.15;10.40;;;-1.40;99.90;;;;;;4755478;30;20054;-79
2021/01/21 03:42:16;;;;;;;15.68;9.98;;;-1.40;99.90;;;;;;4731961;30;20051;-79
2021/01/21 03:44:58;;;;;;;18.38;10.63;;;-1.30;99.90;;;;;;4742392;30;20472;-78
2021/01/21 03:47:30;;;;;;;18.55;10.90;;;-1.30;99.90;;;;;;4755592;30;20520;-79
2021/01/21 03:50:05;;;;;;;17.63;10.00;;;-1.30;99.90;;;;;;4755129;30;20510;-79
2021/01/21 03:52:40;;;;;;;18.52;10.35;;;-1.30;99.90;;;;;;4741097;30;20047;-79
2021/01/21 03:55:12;;;;;;;16.80;10.27;;;-1.30;99.90;;;;;;4754733;30;20108;-78
2021/01/21 03:57:40;;;;;;;15.32;9.32;;;-1.20;99.90;;;;;;4754709;30;20151;-78
2021/01/21 04:00:26;;;;;;;17.23;9.68;;;-1.20;99.90;;;;;;4754792;30;20125;-79
2021/01/21 04:02:56;;;;;;;18.02;10.35;;;-1.20;99.90;;;;;;4754682;30;20054;-79
2021/01/21 04:05:40;;;;;;;20.27;11.70;;;-1.20;99.90;;;;;;4754802;30;20109;-79
2021/01/21 04:08:12;;;;;;;22.23;11.25;;;-1.20;99.90;;;;;;4755938;30;20052;-78
2021/01/21 04:10:50;;;;;;;14.20;9.48;;;-1.20;99.90;;;;;;4754746;30;20044;-78
2021/01/21 04:13:44;;;;;;;;;;;-1.20;99.90;;;;;;4758415;30;20078;-79
2021/01/21 04:16:16;;;;;;;13.38;9.23;;;-1.20;99.90;;;;;;4740269;30;19929;-79
2021/01/21 04:18:48;;;;;;;15.82;9.63;;;-1.30;99.90;;;;;;4755302;30;20040;-79
2021/01/21 04:21:23;;;;;;;19.70;10.25;;;-1.30;99.90;;;;;;4754649;30;20047;-78
2021/01/21 04:24:00;;;;;;;18.20;10.18;;;-1.30;99.90;;;;;;4755618;30;20051;-78
2021/01/21 04:26:38;;;;;;;19.65;12.45;;;-1.30;99.90;;;;;;4741361;30;20060;-79
2021/01/21 04:29:06;;;;;;;20.58;12.77;;;-1.30;99.90;;;;;;4739526;30;20048;-79
2021/01/21 04:31:38;;;;;;;23.38;12.10;;;-1.30;99.90;;;;;;4740283;30;20048;-78
2021/01/21 04:34:15;;;;;;;22.65;10.95;;;-1.30;99.90;;;;;;4755779;30;20431;-78
2021/01/21 04:36:47;;;;;;;21.05;11.60;;;-1.30;99.90;;;;;;4740782;30;20130;-78
2021/01/21 04:39:25;;;;;;;16.08;10.50;;;-1.30;99.90;;;;;;4741667;30;20066;-78
2021/01/21 04:41:59;;;;;;;16.85;10.75;;;-1.30;99.90;;;;;;4754613;30;20187;-78
2021/01/21 04:44:32;;;;;;;18.67;10.55;;;-1.20;99.90;;;;;;4740443;30;20504;-79
2021/01/21 04:47:09;;;;;;;16.50;11.57;;;-1.20;99.90;;;;;;4755662;30;20504;-80
2021/01/21 04:50:01;;;;;;;17.73;10.43;;;-1.20;99.90;;;;;;4758281;30;20074;-78
2021/01/21 04:52:37;;;;;;;15.48;9.73;;;-1.20;99.90;;;;;;4754693;30;20056;-79
2021/01/21 04:55:16;;;;;;;20.80;9.95;;;-1.10;99.90;;;;;;4740269;30;20058;-78
2021/01/21 04:58:25;;;;;;;15.35;8.70;;;-1.10;99.90;;;;;;4756944;30;20044;-79
2021/01/21 05:01:00;;;;;;;17.15;9.18;;;-1.10;99.90;;;;;;4751973;30;20134;-78
2021/01/21 05:03:33;;;;;;;14.27;9.20;;;-1.10;99.90;;;;;;4751428;30;20048;-78
2021/01/21 05:06:27;;;;;;;12.65;8.10;;;-1.10;99.90;;;;;;4750544;30;20054;-78
2021/01/21 05:09:04;;;;;;;11.82;7.75;;;-1.10;99.90;;;;;;4750331;30;20091;-77
2021/01/21 05:11:36;;;;;;;12.00;7.60;;;-1.00;99.90;;;;;;4750590;30;20477;-78
2021/01/21 05:14:25;;;;;;;15.57;9.15;;;-1.00;99.90;;;;;;4765545;30;20067;-78
2021/01/21 05:17:15;;;;;;;13.43;9.02;;;-1.00;99.90;;;;;;4766532;30;20066;-78
2021/01/21 05:19:52;;;;;;;11.43;8.00;;;-1.00;99.90;;;;;;4765297;30;20062;-78
2021/01/21 05:22:42;;;;;;;12.95;7.82;;;-1.00;99.90;;;;;;4754002;30;20526;-78
2021/01/21 05:25:33;;;;;;;12.52;7.57;;;-0.90;99.90;;;;;;4753983;30;20059;-78
2021/01/21 05:28:33;;;;;;;12.95;8.13;;;-0.90;99.90;;;;;;4750254;30;20063;-78
2021/01/21 05:31:15;;;;;;;13.55;7.93;;;-0.90;99.90;;;;;;4750367;30;20593;-78
2021/01/21 05:33:48;;;;;;;10.48;7.50;;;-0.90;99.90;;;;;;4750577;30;20046;-78
2021/01/21 05:36:27;;;;;;;10.82;7.60;;;-0.90;99.90;;;;;;4750682;30;20052;-78
2021/01/21 05:39:12;;;;;;;10.05;6.97;;;-0.80;99.90;;;;;;4765053;30;20520;-78
2021/01/21 05:42:08;;;;;;;9.85;6.35;;;-0.80;99.90;;;;;;4743637;30;20105;-78
2021/01/21 05:44:59;;;;;;;11.40;7.57;;;-0.80;99.90;;;;;;4750171;30;20056;-78
2021/01/21 05:48:03;;;;;;;12.23;7.32;;;-0.70;99.90;;;;;;4754870;30;20550;-78
2021/01/21 05:50:32;;;;;;;9.45;6.55;;;-0.70;99.90;;;;;;4753109;30;20150;-78
2021/01/21 05:53:08;;;;;;;10.45;6.60;;;-0.60;99.90;;;;;;4753155;30;20089;-78
2021/01/21 05:55:48;;;;;;;9.82;6.45;;;-0.60;99.90;;;;;;4753067;30;20056;-78
2021/01/21 05:58:15;;;;;;;11.43;5.43;;;-0.50;99.90;;;;;;4752761;30;20068;-78
2021/01/21 06:00:47;;;;;;;11.93;7.25;;;-0.50;99.90;;;;;;4753816;30;20054;-78
2021/01/21 06:03:40;;;;;;;11.52;7.40;;;-0.40;99.90;;;;;;4752889;30;20060;-77
2021/01/21 06:06:25;;;;;;;10.18;7.05;;;-0.30;99.90;;;;;;4739682;30;20464;-77
2021/01/21 06:08:57;;;;;;;49.28;18.40;;;-0.30;99.90;;;;;;4752811;30;20464;-78
2021/01/21 06:11:23;;;;;;;45.70;18.48;;;-0.30;99.90;;;;;;4752526;30;20120;-79
2021/01/21 06:13:54;;;;;;;36.53;16.50;;;-0.30;99.90;;;;;;4749511;30;20105;-78
2021/01/21 06:16:22;;;;;;;19.85;9.48;;;-0.20;99.90;;;;;;4746318;30;20143;-78
2021/01/21 06:18:54;;;;;;;20.10;9.85;;;-0.20;99.90;;;;;;4751978;30;20089;-79
2021/01/21 06:21:47;;;;;;;15.95;10.63;;;-0.20;99.90;;;;;;4740561;30;20524;-78
2021/01/21 06:24:43;;;;;;;23.25;14.07;;;-0.20;99.90;;;;;;4753530;30;20143;-77
2021/01/21 06:27:15;;;;;;;51.95;26.13;;;-0.30;99.90;;;;;;4738091;30;20512;-78
2021/01/21 06:29:49;;;;;;;33.30;18.00;;;-0.30;99.90;;;;;;4737174;30;20113;-79
2021/01/21 06:32:47;;;;;;;25.63;14.95;;;-0.30;99.90;;;;;;4751506;30;20415;-78
2021/01/21 06:35:20;;;;;;;29.50;16.58;;;-0.30;99.90;;;;;;4742749;30;20045;-78
2021/01/21 06:37:52;;;;;;;29.52;17.48;;;-0.30;99.90;;;;;;4733952;30;20052;-78
2021/01/21 06:40:25;;;;;;;30.40;18.60;;;-0.40;99.90;;;;;;4765091;30;20067;-78
2021/01/21 06:43:07;;;;;;;86.32;36.78;;;-0.40;99.90;;;;;;4784556;30;20451;-78
2021/01/21 06:45:39;;;;;;;71.03;31.35;;;-0.40;99.90;;;;;;4769599;30;20073;-78
2021/01/21 06:48:11;;;;;;;50.08;25.17;;;-0.30;99.90;;;;;;4769880;30;20171;-78
2021/01/21 06:50:46;;;;;;;28.58;14.88;;;-0.30;99.90;;;;;;4770119;30;20051;-81
2021/01/21 06:53:21;;;;;;;23.00;13.30;;;-0.30;99.90;;;;;;4772334;30;20063;-81
2021/01/21 06:55:53;;;;;;;17.35;12.20;;;-0.30;99.90;;;;;;4771788;30;20098;-79
2021/01/21 06:58:44;;;;;;;20.38;11.25;;;-0.30;99.90;;;;;;4758185;30;20052;-78
2021/01/21 07:01:33;;;;;;;18.20;10.70;;;-0.30;99.90;;;;;;4739392;30;20155;-78
2021/01/21 07:04:10;;;;;;;18.42;10.27;;;-0.20;99.90;;;;;;4753514;30;20056;-78
2021/01/21 07:06:58;;;;;;;19.95;12.45;;;-0.20;99.90;;;;;;4753165;30;20094;-78
2021/01/21 07:09:26;;;;;;;20.10;11.60;;;-0.10;99.90;;;;;;4737934;30;20052;-78
2021/01/21 07:11:57;;;;;;;16.27;10.50;;;-0.10;99.90;;;;;;4752198;30;20802;-78
2021/01/21 07:14:26;;;;;;;17.05;10.65;;;-0.10;99.90;;;;;;4752621;30;20083;-78
2021/01/21 07:17:01;;;;;;;13.43;9.50;;;-0.10;99.90;;;;;;4753159;30;20147;-78
2021/01/21 07:19:48;;;;;;;16.40;10.93;;;-0.10;99.90;;;;;;4739786;30;20127;-78
2021/01/21 07:22:22;;;;;;;16.10;11.02;;;-0.10;99.90;;;;;;4734651;30;20044;-78
2021/01/21 07:25:00;;;;;;;17.85;11.95;;;-0.10;99.90;;;;;;4720235;30;20133;-78
2021/01/21 07:27:34;;;;;;;22.75;13.85;;;-0.10;99.90;;;;;;4729178;30;20056;-78
2021/01/21 07:30:21;;;;;;;18.40;11.88;;;-0.10;99.90;;;;;;4752849;30;20047;-78
2021/01/21 07:32:48;;;;;;;19.13;11.63;;;-0.10;99.90;;;;;;4750679;30;20581;-78
2021/01/21 07:35:31;;;;;;;17.13;11.77;;;-0.10;99.90;;;;;;4737820;30;20074;-78
2021/01/21 07:37:58;;;;;;;19.63;11.27;;;-0.10;99.90;;;;;;4738269;30;20143;-78
2021/01/21 07:40:45;;;;;;;21.27;13.18;;;-0.10;99.90;;;;;;4758132;30;20172;-78
2021/01/21 07:43:12;;;;;;;16.75;11.43;;;0.00;99.90;;;;;;4763855;30;20048;-78
2021/01/21 07:45:39;;;;;;;16.15;10.65;;;0.00;99.90;;;;;;4761313;30;20124;-78
2021/01/21 07:48:25;;;;;;;26.73;15.13;;;0.10;99.90;;;;;;4765670;30;20074;-78
2021/01/21 07:51:12;;;;;;;34.50;19.15;;;0.20;99.90;;;;;;4784353;30;20134;-78
2021/01/21 07:53:38;;;;;;;28.67;15.65;;;0.20;99.90;;;;;;4769404;30;20074;-78
2021/01/21 07:56:05;;;;;;;21.60;10.85;;;0.20;99.90;;;;;;4752650;30;20055;-78
2021/01/21 07:58:38;;;;;;;15.77;10.48;;;0.20;99.90;;;;;;4756857;30;20040;-77
2021/01/21 08:01:09;;;;;;;17.23;9.25;;;0.20;99.90;;;;;;4769394;30;20078;-78
2021/01/21 08:03:46;;;;;;;11.02;7.68;;;0.30;99.90;;;;;;4768970;30;20057;-78
2021/01/21 08:06:18;;;;;;;4.72;3.63;;;0.30;99.90;;;;;;4766352;30;20131;-78
2021/01/21 08:08:52;;;;;;;5.50;3.22;;;0.40;99.90;;;;;;4752109;30;20163;-78
2021/01/21 08:11:24;;;;;;;10.00;6.57;;;0.80;99.90;;;;;;4767521;30;20142;-78
2021/01/21 08:13:56;;;;;;;17.10;12.30;;;1.10;99.90;;;;;;4757429;30;20043;-78
2021/01/21 08:16:23;;;;;;;18.85;12.20;;;1.20;99.90;;;;;;4769093;30;20055;-77
2021/01/21 08:19:00;;;;;;;24.42;16.73;;;1.20;99.90;;;;;;4767230;30;20079;-78
2021/01/21 08:21:27;;;;;;;22.60;14.82;;;1.20;99.90;;;;;;4769081;30;20150;-78
2021/01/21 08:24:00;;;;;;;37.50;20.20;;;1.10;99.90;;;;;;4784418;30;20059;-78
2021/01/21 08:26:29;;;;;;;34.33;20.55;;;1.10;99.90;;;;;;4765512;30;20078;-79
2021/01/21 08:29:00;;;;;;;28.58;18.15;;;1.00;99.90;;;;;;4751737;30;20062;-79
2021/01/21 08:31:38;;;;;;;23.00;15.75;;;1.00;99.90;;;;;;4751987;30;20056;-78
2021/01/21 08:34:26;;;;;;;49.92;25.15;;;1.00;99.90;;;;;;4766102;30;20147;-78
2021/01/21 08:37:03;;;;;;;48.17;20.45;;;1.00;99.90;;;;;;4736633;30;20052;-78
2021/01/21 08:39:29;;;;;;;15.30;9.07;;;1.00;99.90;;;;;;4768305;30;20047;-78
2021/01/21 08:42:03;;;;;;;13.93;7.55;;;1.00;99.90;;;;;;4750597;30;20482;-78
2021/01/21 08:44:35;;;;;;;3.50;1.95;;;1.30;99.90;;;;;;4751616;30;20062;-78
2021/01/21 08:47:06;;;;;;;1.50;0.77;;;1.70;99.90;;;;;;4751121;30;20154;-78
2021/01/21 08:49:37;;;;;;;1.40;0.70;;;2.70;99.90;;;;;;4751426;30;20151;-78
2021/01/21 08:52:09;;;;;;;1.88;0.63;;;3.50;99.90;;;;;;4751551;30;20159;-77
2021/01/21 08:54:53;;;;;;;1.80;0.70;;;4.00;99.90;;;;;;4751765;30;20131;-77
2021/01/21 08:57:23;;;;;;;2.00;0.88;;;4.40;99.90;;;;;;4751396;30;20083;-78
2021/01/21 08:59:50;;;;;;;1.55;0.95;;;4.60;99.90;;;;;;4750860;30;20142;-77
2021/01/21 09:02:38;;;;;;;0.90;0.43;;;4.80;99.50;;;;;;4751499;30;20106;-78
2021/01/21 09:05:10;;;;;;;0.77;0.67;;;5.10;98.00;;;;;;4752606;30;20047;-77
2021/01/21 09:07:41;;;;;;;2.05;0.80;;;5.30;96.40;;;;;;4749769;30;20512;-78
2021/01/21 09:10:13;;;;;;;1.13;1.00;;;5.50;95.20;;;;;;4750166;30;20079;-77
2021/01/21 09:12:44;;;;;;;2.33;0.80;;;5.60;94.70;;;;;;4750833;30;20056;-77
2021/01/21 09:15:16;;;;;;;1.80;0.80;;;5.70;93.90;;;;;;4752419;30;20047;-77
2021/01/21 09:17:43;;;;;;;1.08;0.70;;;5.80;92.90;;;;;;4753588;30;20150;-78
2021/01/21 09:20:20;;;;;;;2.08;1.00;;;6.00;92.20;;;;;;4740887;30;20736;-77
2021/01/21 09:22:51;;;;;;;2.22;1.00;;;6.10;91.20;;;;;;4754946;30;20051;-77
2021/01/21 09:25:25;;;;;;;1.50;0.82;;;6.30;90.10;;;;;;4753801;30;20134;-78
2021/01/21 09:27:57;;;;;;;1.35;0.80;;;6.30;90.10;;;;;;4754849;30;20054;-78
2021/01/21 09:30:28;;;;;;;1.42;0.68;;;6.40;88.70;;;;;;4754927;30;20086;-78
2021/01/21 09:32:59;;;;;;;1.27;0.60;;;6.50;87.50;;;;;;4754578;30;20046;-77
2021/01/21 09:35:30;;;;;;;1.08;0.75;;;6.50;87.40;;;;;;4753845;30;20052;-77
2021/01/21 09:37:59;;;;;;;1.00;0.90;;;6.60;85.20;;;;;;4752810;30;20048;-78
2021/01/21 09:40:32;;;;;;;1.58;0.70;;;6.70;84.70;;;;;;4739087;30;20142;-78
2021/01/21 09:43:05;;;;;;;1.42;0.85;;;6.80;82.50;;;;;;4741325;30;20047;-79
2021/01/21 09:45:37;;;;;;;2.15;0.88;;;6.80;80.80;;;;;;4769766;30;20051;-78
2021/01/21 09:48:04;;;;;;;5.35;4.85;;;6.90;80.30;;;;;;4752428;30;20052;-77
2021/01/21 09:50:35;;;;;;;1.63;0.98;;;7.00;79.20;;;;;;4752719;30;20146;-78
2021/01/21 09:53:01;;;;;;;2.00;0.90;;;7.20;77.90;;;;;;4749408;30;20056;-78
2021/01/21 09:55:34;;;;;;;2.38;0.70;;;7.20;77.60;;;;;;4752177;30;20048;-78
2021/01/21 09:58:00;;;;;;;1.40;0.73;;;7.20;78.00;;;;;;4767654;30;20058;-79
2021/01/21 10:00:31;;;;;;;1.58;0.80;;;7.30;77.80;;;;;;4751954;30;20040;-79
2021/01/21 10:03:03;;;;;;;1.25;0.77;;;7.30;76.60;;;;;;4751135;30;20058;-79
2021/01/21 10:05:35;;;;;;;1.40;0.75;;;7.30;76.50;;;;;;4752940;30;20087;-80
2021/01/21 10:08:06;;;;;;;3.10;0.80;;;7.40;75.40;;;;;;4752452;30;20114;-80
2021/01/21 10:10:37;;;;;;;1.30;0.80;;;7.40;75.90;;;;;;4753707;30;20051;-80
2021/01/21 10:13:09;;;;;;;1.70;1.08;;;7.40;75.50;;;;;;4753864;30;20044;-80
2021/01/21 10:15:40;;;;;;;1.45;0.98;;;7.40;74.90;;;;;;4750676;30;20051;-80
2021/01/21 10:18:11;;;;;;;2.15;1.30;;;7.50;73.40;;;;;;4769956;30;20134;-80
2021/01/21 10:20:42;;;;;;;2.47;1.55;;;7.50;73.90;;;;;;4770725;30;20061;-80
2021/01/21 10:23:08;;;;;;;1.27;0.98;;;7.50;73.30;;;;;;4770854;30;20055;-80
2021/01/21 10:25:39;;;;;;;2.15;1.67;;;7.60;73.60;;;;;;4770451;30;20598;-80
2021/01/21 10:28:11;;;;;;;2.08;0.90;;;7.50;73.90;;;;;;4785327;30;20103;-79
2021/01/21 10:30:42;;;;;;;1.85;1.00;;;7.50;74.00;;;;;;4769774;30;20074;-79
2021/01/21 10:33:13;;;;;;;1.10;0.85;;;7.50;74.40;;;;;;4764331;30;20044;-80
2021/01/21 10:35:44;;;;;;;2.90;1.25;;;7.50;74.60;;;;;;4752495;30;20048;-80
2021/01/21 10:38:10;;;;;;;1.35;0.80;;;7.50;73.40;;;;;;4737652;30;20150;-80
2021/01/21 10:40:42;;;;;;;1.17;0.90;;;7.60;74.20;;;;;;4752562;30;20071;-79
2021/01/21 10:43:13;;;;;;;2.00;1.10;;;7.60;73.50;;;;;;4752444;30;20052;-80
2021/01/21 10:45:44;;;;;;;3.28;0.90;;;7.60;73.60;;;;;;4756202;30;20054;-80
2021/01/21 10:48:15;;;;;;;1.40;0.82;;;7.60;73.50;;;;;;4754847;30;20071;-80
2021/01/21 10:50:47;;;;;;;1.48;1.00;;;7.70;73.20;;;;;;4753516;30;20048;-80
2021/01/21 10:53:13;;;;;;;1.85;0.88;;;7.70;72.60;;;;;;4737938;30;20052;-79
2021/01/21 10:55:45;;;;;;;2.10;1.40;;;7.70;72.80;;;;;;4767789;30;20052;-80
2021/01/21 10:58:12;;;;;;;0.93;0.80;;;7.70;72.70;;;;;;4752169;30;20142;-79
2021/01/21 11:00:40;;;;;;;2.40;1.50;;;7.70;73.90;;;;;;4752383;30;20400;-79
2021/01/21 11:03:12;;;;;;;1.30;0.80;;;7.70;73.40;;;;;;4738321;30;20062;-79
2021/01/21 11:05:44;;;;;;;1.63;0.80;;;7.60;74.40;;;;;;4750900;30;20058;-80
2021/01/21 11:08:11;;;;;;;1.15;0.70;;;7.60;74.00;;;;;;4752149;30;20503;-79
2021/01/21 11:10:43;;;;;;;1.90;0.98;;;7.60;74.60;;;;;;4754175;30;20062;-81
2021/01/21 11:13:17;;;;;;;1.92;1.10;;;7.60;74.30;;;;;;4753541;30;20143;-79
2021/01/21 11:15:49;;;;;;;2.30;0.80;;;7.60;74.40;;;;;;4752640;30;20070;-80
2021/01/21 11:18:21;;;;;;;1.50;0.80;;;7.50;75.20;;;;;;4753655;30;20508;-78
2021/01/21 11:20:53;;;;;;;4.47;1.17;;;7.60;75.30;;;;;;4753054;30;20044;-80
2021/01/21 11:23:24;;;;;;;1.48;0.90;;;7.60;75.20;;;;;;4752928;30;20301;-79
2021/01/21 11:25:55;;;;;;;2.70;1.17;;;7.70;74.70;;;;;;4754147;30;20052;-80
2021/01/21 11:28:26;;;;;;;2.40;1.20;;;7.90;74.10;;;;;;4754006;30;20058;-80
2021/01/21 11:30:58;;;;;;;1.52;0.75;;;8.00;73.70;;;;;;4752553;30;20055;-80
2021/01/21 11:33:29;;;;;;;1.70;0.80;;;8.10;73.60;;;;;;4759463;30;20051;-80
2021/01/21 11:35:55;;;;;;;1.15;0.80;;;8.20;73.50;;;;;;4758580;30;20059;-80
2021/01/21 11:38:27;;;;;;;1.77;1.10;;;8.30;72.70;;;;;;4758496;30;20055;-79
2021/01/21 11:40:58;;;;;;;2.22;0.93;;;8.50;71.40;;;;;;4757598;30;20047;-80
2021/01/21 11:43:29;;;;;;;3.65;1.00;;;8.40;71.10;;;;;;4770120;30;20504;-79
2021/01/21 11:46:01;;;;;;;1.75;1.00;;;8.50;70.40;;;;;;4733647;30;20052;-79
2021/01/21 11:48:32;;;;;;;1.77;1.20;;;8.60;70.10;;;;;;4720460;30;20564;-80
2021/01/21 11:51:03;;;;;;;1.55;0.98;;;8.70;68.90;;;;;;4749649;30;20070;-79
2021/01/21 11:53:34;;;;;;;1.70;1.10;;;8.70;68.30;;;;;;4735437;30;20046;-80
2021/01/21 11:56:05;;;;;;;1.45;1.02;;;8.80;68.50;;;;;;4749650;30;20055;-80
2021/01/21 11:58:37;;;;;;;2.72;1.20;;;8.80;69.10;;;;;;4734272;30;20408;-80
2021/01/21 12:01:03;;;;;;;3.28;1.27;;;8.80;69.10;;;;;;4749650;30;20052;-80
2021/01/21 12:03:35;;;;;;;2.13;1.30;;;8.80;68.00;;;;;;4749341;30;20056;-80
2021/01/21 12:06:06;;;;;;;1.92;1.00;;;8.80;68.40;;;;;;4750145;30;20135;-80
2021/01/21 12:08:37;;;;;;;3.55;2.13;;;8.90;67.60;;;;;;4736071;30;20059;-80
2021/01/21 12:11:08;;;;;;;3.22;1.17;;;8.90;67.90;;;;;;4750018;30;20152;-80
2021/01/21 12:13:39;;;;;;;1.70;1.00;;;8.90;68.40;;;;;;4735744;30;20071;-80
2021/01/21 12:16:05;;;;;;;2.25;1.10;;;9.00;67.50;;;;;;4760212;30;20054;-80
2021/01/21 12:18:37;;;;;;;3.47;1.30;;;9.00;67.30;;;;;;4752724;30;20155;-80
2021/01/21 12:21:08;;;;;;;1.95;0.80;;;9.10;67.00;;;;;;4752867;30;20048;-80
2021/01/21 12:23:39;;;;;;;2.55;1.00;;;9.10;67.10;;;;;;4752281;30;20062;-79
2021/01/21 12:26:10;;;;;;;1.92;1.40;;;9.00;66.60;;;;;;4751612;30;20051;-79
2021/01/21 12:28:37;;;;;;;1.45;1.00;;;8.90;67.40;;;;;;4750837;30;20062;-80
2021/01/21 12:31:04;;;;;;;2.65;1.30;;;8.90;67.40;;;;;;4752550;30;20055;-80
2021/01/21 12:33:31;;;;;;;1.23;0.93;;;9.00;67.30;;;;;;4755165;30;20043;-80
2021/01/21 12:36:03;;;;;;;1.88;1.33;;;9.10;67.00;;;;;;4769315;30;20053;-79
2021/01/21 12:38:29;;;;;;;1.60;1.20;;;9.10;66.30;;;;;;4769528;30;20087;-79
2021/01/21 12:41:00;;;;;;;2.13;1.17;;;9.20;66.30;;;;;;4769838;30;20051;-79
2021/01/21 12:43:27;;;;;;;2.53;1.10;;;9.20;65.80;;;;;;4769702;30;20079;-79
2021/01/21 12:45:58;;;;;;;2.45;1.30;;;9.20;66.30;;;;;;4755498;30;20055;-79
2021/01/21 12:48:27;;;;;;;1.98;1.20;;;9.20;66.20;;;;;;4770653;30;20047;-79
2021/01/21 12:50:58;;;;;;;2.03;0.80;;;9.10;66.30;;;;;;4773263;30;20055;-79
2021/01/21 12:53:29;;;;;;;2.08;1.38;;;9.10;66.60;;;;;;4773212;30;20419;-79
2021/01/21 12:56:01;;;;;;;2.53;1.17;;;9.00;66.90;;;;;;4773135;30;20050;-79
2021/01/21 12:58:32;;;;;;;1.15;0.75;;;9.00;66.90;;;;;;4787815;30;20047;-81
2021/01/21 13:01:03;;;;;;;1.70;1.05;;;9.00;66.80;;;;;;4765426;30;20128;-80
2021/01/21 13:03:37;;;;;;;2.15;0.98;;;9.10;67.30;;;;;;4737810;30;20058;-79
2021/01/21 13:06:04;;;;;;;1.15;1.02;;;9.20;66.60;;;;;;4736267;30;20047;-79
2021/01/21 13:08:31;;;;;;;1.58;1.30;;;9.10;67.60;;;;;;4738935;30;20052;-80
2021/01/21 13:11:02;;;;;;;2.38;1.13;;;9.10;67.20;;;;;;4759652;30;20051;-79
2021/01/21 13:13:32;;;;;;;1.75;0.80;;;9.20;67.10;;;;;;4772166;30;20504;-79
2021/01/21 13:15:59;;;;;;;1.10;0.75;;;9.30;66.70;;;;;;4754722;30;20052;-79
2021/01/21 13:18:26;;;;;;;1.23;0.80;;;9.30;66.20;;;;;;4754586;30;20058;-79
2021/01/21 13:20:57;;;;;;;1.50;0.85;;;9.40;66.90;;;;;;4769405;30;20496;-80
2021/01/21 13:23:28;;;;;;;1.13;0.90;;;9.40;66.60;;;;;;4756340;30;20067;-80